createdAt,value
2018-06-16T00:00:55.865Z,18.30
2018-06-16T00:03:24.394Z,18.30
2018-06-16T00:05:52.834Z,18.30
2018-06-16T00:08:21.293Z,18.40
2018-06-16T00:10:49.682Z,18.40
2018-06-16T00:13:18.033Z,18.40
2018-06-16T00:15:46.389Z,18.50
2018-06-16T00:18:14.780Z,18.50
2018-06-16T00:20:43.187Z,18.50
2018-06-16T00:23:11.532Z,18.50
2018-06-16T00:25:39.908Z,18.50
2018-06-16T00:28:08.260Z,18.40
2018-06-16T00:30:36.636Z,18.30
2018-06-16T00:33:05.008Z,18.10
2018-06-16T00:35:33.395Z,18.00
2018-06-16T00:38:01.772Z,17.80
2018-06-16T00:40:30.174Z,17.70
2018-06-16T00:42:58.528Z,17.60
2018-06-16T00:45:26.869Z,17.50
2018-06-16T00:47:55.354Z,17.50
2018-06-16T00:50:23.698Z,17.40
2018-06-16T00:52:52.299Z,17.30
2018-06-16T00:55:20.594Z,17.30
2018-06-16T00:57:50.131Z,17.30
2018-06-16T01:02:47.880Z,17.30
2018-06-16T01:05:16.302Z,17.30
2018-06-16T01:07:44.678Z,17.30
2018-06-16T01:10:13.481Z,17.20
2018-06-16T01:12:41.854Z,17.10
2018-06-16T01:15:10.220Z,17.10
2018-06-16T01:17:38.566Z,17.00
2018-06-16T01:20:06.924Z,16.90
2018-06-16T01:22:35.411Z,16.80
2018-06-16T01:25:03.814Z,16.70
2018-06-16T01:27:32.158Z,16.70
2018-06-16T01:30:00.509Z,16.70
2018-06-16T01:32:28.892Z,16.60
2018-06-16T01:34:57.266Z,16.50
2018-06-16T01:37:25.690Z,16.50
2018-06-16T01:39:54.038Z,16.40
2018-06-16T01:42:22.380Z,16.40
2018-06-16T01:44:50.828Z,16.50
2018-06-16T01:47:19.205Z,16.50
2018-06-16T01:49:47.577Z,16.60
2018-06-16T01:52:15.946Z,16.70
2018-06-16T01:54:44.364Z,16.70
2018-06-16T01:57:12.727Z,16.70
2018-06-16T01:59:41.082Z,16.60
2018-06-16T02:02:09.504Z,16.60
2018-06-16T02:04:37.867Z,16.80
2018-06-16T02:07:06.653Z,17.00
2018-06-16T02:09:34.998Z,17.10
2018-06-16T02:12:03.476Z,17.10
2018-06-16T02:14:31.839Z,17.20
2018-06-16T02:17:00.189Z,17.10
2018-06-16T02:19:28.538Z,17.00
2018-06-16T02:21:56.901Z,17.00
2018-06-16T02:26:53.310Z,16.80
2018-06-16T02:29:21.697Z,16.70
2018-06-16T02:31:50.162Z,16.70
2018-06-16T02:34:18.529Z,16.60
2018-06-16T02:36:47.021Z,16.60
2018-06-16T02:39:15.382Z,16.50
2018-06-16T02:41:43.785Z,16.40
2018-06-16T02:44:12.172Z,16.30
2018-06-16T02:46:40.538Z,16.30
2018-06-16T02:49:08.901Z,16.30
2018-06-16T02:51:37.279Z,16.20
2018-06-16T02:54:05.656Z,16.30
2018-06-16T02:56:34.120Z,16.20
2018-06-16T02:59:02.466Z,16.20
2018-06-16T03:01:30.915Z,16.30
2018-06-16T03:03:59.303Z,16.20
2018-06-16T03:06:27.650Z,16.20
2018-06-16T03:08:56.114Z,16.30
2018-06-16T03:11:24.512Z,16.30
2018-06-16T03:13:53.492Z,16.40
2018-06-16T03:16:21.871Z,16.40
2018-06-16T03:18:50.233Z,16.50
2018-06-16T03:21:18.615Z,16.50
2018-06-16T03:23:46.970Z,16.50
2018-06-16T03:26:15.350Z,16.40
2018-06-16T03:28:43.724Z,16.40
2018-06-16T03:31:12.062Z,16.40
2018-06-16T03:33:40.548Z,16.40
2018-06-16T03:36:08.915Z,16.50
2018-06-16T03:38:37.288Z,16.60
2018-06-16T03:41:05.656Z,16.60
2018-06-16T03:43:34.024Z,16.60
2018-06-16T03:46:02.371Z,16.60
2018-06-16T03:48:30.709Z,16.70
2018-06-16T03:50:59.148Z,16.80
2018-06-16T03:53:27.527Z,16.90
2018-06-16T03:55:55.934Z,17.00
2018-06-16T03:58:24.284Z,17.10
2018-06-16T04:00:52.625Z,17.10
2018-06-16T04:03:20.958Z,17.20
2018-06-16T04:05:49.308Z,17.20
2018-06-16T04:08:17.662Z,17.20
2018-06-16T04:10:46.018Z,17.20
2018-06-16T04:13:14.402Z,17.30
2018-06-16T04:15:42.750Z,17.30
2018-06-16T04:18:11.090Z,17.30
2018-06-16T04:20:39.440Z,17.30
2018-06-16T04:23:07.792Z,17.40
2018-06-16T04:25:36.224Z,17.40
2018-06-16T04:28:04.560Z,17.50
2018-06-16T04:30:32.976Z,17.50
2018-06-16T04:33:01.342Z,17.60
2018-06-16T04:35:29.703Z,17.60
2018-06-16T04:37:58.056Z,17.60
2018-06-16T04:40:26.426Z,17.70
2018-06-16T04:42:54.759Z,17.90
2018-06-16T04:45:23.142Z,18.00
2018-06-16T04:47:51.506Z,18.20
2018-06-16T04:50:19.892Z,18.50
2018-06-16T04:52:48.273Z,18.80
2018-06-16T04:55:16.616Z,19.10
2018-06-16T04:57:45.053Z,19.30
2018-06-16T05:00:13.444Z,19.50
2018-06-16T05:02:41.930Z,19.70
2018-06-16T05:05:10.311Z,19.80
2018-06-16T05:07:39.280Z,19.90
2018-06-16T05:10:07.812Z,19.90
2018-06-16T05:12:36.178Z,20.00
2018-06-16T05:15:04.931Z,20.10
2018-06-16T05:17:33.276Z,20.20
2018-06-16T05:20:01.656Z,20.30
2018-06-16T05:22:30.036Z,20.40
2018-06-16T05:24:58.560Z,20.50
2018-06-16T05:27:26.993Z,20.60
2018-06-16T05:29:55.367Z,20.70
2018-06-16T05:32:23.805Z,20.60
2018-06-16T05:34:52.187Z,20.60
2018-06-16T05:37:20.645Z,20.50
2018-06-16T05:39:49.006Z,20.50
2018-06-16T05:42:17.364Z,20.60
2018-06-16T05:44:45.731Z,20.60
2018-06-16T05:47:17.074Z,20.50
2018-06-16T05:49:45.462Z,20.50
2018-06-16T05:52:13.865Z,20.60
2018-06-16T05:54:42.239Z,20.80
2018-06-16T05:57:10.673Z,21.10
2018-06-16T05:59:38.987Z,21.30
2018-06-16T06:02:07.337Z,21.60
2018-06-16T06:04:35.730Z,22.00
2018-06-16T06:07:04.121Z,22.40
2018-06-16T06:09:32.479Z,22.50
2018-06-16T06:12:00.852Z,22.50
2018-06-16T06:14:35.798Z,22.60
2018-06-16T06:17:04.202Z,22.80
2018-06-16T06:19:32.568Z,23.10
2018-06-16T06:22:01.019Z,23.40
2018-06-16T06:24:29.362Z,23.40
2018-06-16T06:26:57.717Z,23.40
2018-06-16T06:29:26.074Z,23.50
2018-06-16T06:31:54.543Z,23.80
2018-06-16T06:34:22.913Z,24.40
2018-06-16T06:36:51.292Z,25.00
2018-06-16T06:39:19.664Z,25.20
2018-06-16T06:41:48.044Z,25.30
2018-06-16T06:44:16.436Z,25.60
2018-06-16T06:46:45.590Z,25.80
2018-06-16T06:49:13.967Z,25.90
2018-06-16T06:51:42.445Z,26.10
2018-06-16T06:54:10.788Z,26.40
2018-06-16T06:56:39.240Z,26.40
2018-06-16T06:59:07.669Z,26.60
2018-06-16T07:01:36.026Z,26.70
2018-06-16T07:04:04.624Z,26.80
2018-06-16T07:06:33.032Z,26.90
2018-06-16T07:09:01.404Z,27.20
2018-06-16T07:11:29.754Z,27.50
2018-06-16T07:13:58.136Z,27.90
2018-06-16T07:16:26.455Z,28.20
2018-06-16T07:18:54.857Z,28.20
2018-06-16T07:21:23.770Z,28.10
2018-06-16T07:23:52.129Z,28.20
2018-06-16T07:26:20.504Z,28.40
2018-06-16T07:28:48.836Z,28.40
2018-06-16T07:31:17.228Z,28.50
2018-06-16T07:33:45.598Z,28.10
2018-06-16T07:36:13.966Z,27.90
2018-06-16T07:38:42.338Z,28.10
2018-06-16T07:41:10.749Z,28.30
2018-06-16T07:43:39.166Z,28.30
2018-06-16T07:46:07.505Z,28.10
2018-06-16T07:48:35.903Z,27.90
2018-06-16T07:51:04.268Z,27.60
2018-06-16T07:53:32.674Z,27.30
2018-06-16T07:56:01.034Z,27.40
2018-06-16T07:58:29.426Z,27.80
2018-06-16T08:00:57.811Z,28.10
2018-06-16T08:03:26.168Z,28.60
2018-06-16T08:05:55.184Z,29.30
2018-06-16T08:08:23.558Z,29.80
2018-06-16T08:13:19.965Z,30.50
2018-06-16T08:15:48.324Z,30.70
2018-06-16T08:18:16.698Z,30.40
2018-06-16T08:20:45.080Z,29.90
2018-06-16T08:23:13.422Z,29.40
2018-06-16T08:25:41.738Z,29.10
2018-06-16T08:28:10.246Z,28.80
2018-06-16T08:30:38.628Z,28.60
2018-06-16T08:33:07.047Z,28.90
2018-06-16T08:35:36.153Z,29.00
2018-06-16T08:38:04.513Z,29.00
2018-06-16T08:40:32.980Z,29.20
2018-06-16T08:43:01.338Z,29.30
2018-06-16T08:47:57.767Z,29.60
2018-06-16T08:50:26.135Z,29.60
2018-06-16T08:52:54.494Z,29.60
2018-06-16T08:55:23.024Z,30.10
2018-06-16T08:57:51.307Z,30.10
2018-06-16T09:00:19.634Z,30.20
2018-06-16T09:02:47.994Z,30.20
2018-06-16T09:05:16.351Z,30.40
2018-06-16T09:07:44.775Z,30.80
2018-06-16T09:10:13.123Z,31.30
2018-06-16T09:12:41.506Z,31.50
2018-06-16T09:15:09.859Z,31.70
2018-06-16T09:17:38.264Z,31.80
2018-06-16T09:20:06.639Z,31.60
2018-06-16T09:22:35.203Z,30.80
2018-06-16T09:25:03.508Z,29.90
2018-06-16T09:27:31.873Z,29.60
2018-06-16T09:30:00.266Z,29.60
2018-06-16T09:32:28.645Z,29.70
2018-06-16T09:34:57.027Z,29.60
2018-06-16T09:37:25.453Z,29.70
2018-06-16T09:39:54.174Z,30.20
2018-06-16T09:42:22.711Z,30.70
2018-06-16T09:44:51.030Z,30.70
2018-06-16T09:47:19.361Z,30.90
2018-06-16T09:49:47.734Z,31.20
2018-06-16T09:52:16.125Z,31.30
2018-06-16T09:54:44.483Z,31.30
2018-06-16T09:57:12.830Z,31.20
2018-06-16T09:59:41.229Z,30.70
2018-06-16T10:02:09.587Z,30.30
2018-06-16T10:04:37.949Z,30.40
2018-06-16T10:07:06.312Z,30.60
2018-06-16T10:09:34.671Z,31.00
2018-06-16T10:12:03.018Z,31.40
2018-06-16T10:14:31.365Z,32.30
2018-06-16T10:16:59.799Z,33.00
2018-06-16T10:19:28.169Z,32.90
2018-06-16T10:24:24.635Z,32.20
2018-06-16T10:29:21.072Z,32.00
2018-06-16T10:31:49.423Z,32.00
2018-06-16T10:34:17.783Z,31.80
2018-06-16T10:36:46.118Z,31.90
2018-06-16T10:41:42.578Z,33.20
2018-06-16T10:44:10.935Z,33.60
2018-06-16T10:46:39.291Z,34.00
2018-06-16T10:49:07.691Z,33.60
2018-06-16T10:51:36.048Z,33.30
2018-06-16T10:54:04.439Z,33.10
2018-06-16T10:56:32.823Z,32.80
2018-06-16T10:59:04.319Z,33.10
2018-06-16T11:01:32.657Z,33.90
2018-06-16T11:04:01.056Z,34.50
2018-06-16T11:06:29.431Z,35.20
2018-06-16T11:08:57.831Z,34.90
2018-06-16T11:11:26.231Z,34.50
2018-06-16T11:13:54.823Z,34.20
2018-06-16T11:16:23.244Z,33.70
2018-06-16T11:18:51.591Z,33.40
2018-06-16T11:21:19.942Z,33.70
2018-06-16T11:23:48.290Z,33.90
2018-06-16T11:26:16.701Z,34.50
2018-06-16T11:28:45.054Z,35.00
2018-06-16T11:31:13.411Z,34.80
2018-06-16T11:33:41.767Z,34.70
2018-06-16T11:36:10.194Z,34.50
2018-06-16T11:38:38.564Z,34.40
2018-06-16T11:41:07.082Z,34.40
2018-06-16T11:43:35.439Z,34.80
2018-06-16T11:46:03.839Z,35.80
2018-06-16T11:48:32.293Z,36.40
2018-06-16T11:51:00.671Z,35.70
2018-06-16T11:53:29.068Z,35.10
2018-06-16T11:55:57.451Z,34.30
2018-06-16T11:58:25.805Z,33.40
2018-06-16T12:00:54.212Z,32.70
2018-06-16T12:03:22.598Z,32.30
2018-06-16T12:05:51.009Z,32.10
2018-06-16T12:08:19.567Z,32.60
2018-06-16T12:10:47.963Z,33.90
2018-06-16T12:13:16.320Z,34.50
2018-06-16T12:15:44.667Z,34.50
2018-06-16T12:18:13.037Z,34.50
2018-06-16T12:20:41.394Z,33.90
2018-06-16T12:30:34.107Z,32.20
2018-06-16T12:33:02.517Z,32.50
2018-06-16T12:35:31.021Z,32.80
2018-06-16T12:37:59.464Z,33.10
2018-06-16T12:42:55.887Z,31.90
2018-06-16T12:45:24.213Z,30.90
2018-06-16T12:52:48.725Z,27.70
2018-06-16T12:55:17.071Z,28.10
2018-06-16T12:57:45.451Z,29.20
2018-06-16T13:00:13.816Z,30.10
2018-06-16T13:02:42.148Z,30.70
2018-06-16T13:05:10.517Z,31.10
2018-06-16T13:07:39.215Z,32.10
2018-06-16T13:10:07.625Z,33.30
2018-06-16T13:17:32.283Z,33.20
2018-06-16T13:20:00.655Z,32.30
2018-06-16T13:24:57.260Z,29.60
2018-06-16T13:27:25.633Z,29.70
2018-06-16T13:29:54.053Z,30.60
2018-06-16T13:32:22.397Z,32.40
2018-06-16T13:34:50.761Z,35.70
2018-06-16T13:37:19.128Z,36.20
2018-06-16T13:39:47.500Z,36.40
2018-06-16T13:42:15.958Z,37.30
2018-06-16T13:44:44.313Z,37.90
2018-06-16T13:47:12.664Z,38.10
2018-06-16T13:49:41.034Z,38.90
2018-06-16T13:52:10.141Z,38.00
2018-06-16T13:54:38.501Z,37.80
2018-06-16T13:57:06.871Z,37.50
2018-06-16T13:59:35.281Z,38.20
2018-06-16T14:02:04.249Z,39.50
2018-06-16T14:04:32.611Z,40.50
2018-06-16T14:07:00.986Z,39.70
2018-06-16T14:09:29.336Z,38.70
2018-06-16T14:11:57.711Z,37.60
2018-06-16T14:14:26.117Z,36.50
2018-06-16T14:16:54.493Z,35.20
2018-06-16T14:19:22.836Z,34.20
2018-06-16T14:21:51.209Z,33.40
2018-06-16T14:24:19.673Z,33.20
2018-06-16T14:26:48.123Z,32.50
2018-06-16T14:29:16.532Z,31.90
2018-06-16T14:31:44.916Z,34.50
2018-06-16T14:34:13.376Z,37.90
2018-06-16T14:36:41.726Z,39.40
2018-06-16T14:39:10.703Z,39.80
2018-06-16T14:41:39.288Z,39.40
2018-06-16T14:44:07.625Z,37.90
2018-06-16T14:46:35.976Z,37.40
2018-06-16T14:49:04.349Z,37.00
2018-06-16T14:51:32.719Z,36.50
2018-06-16T14:54:01.344Z,35.70
2018-06-16T14:56:29.858Z,34.80
2018-06-16T15:03:54.371Z,32.40
2018-06-16T15:06:22.747Z,32.40
2018-06-16T15:08:51.109Z,32.60
2018-06-16T15:11:19.473Z,32.40
2018-06-16T15:13:47.842Z,32.10
2018-06-16T15:16:16.278Z,31.40
2018-06-16T15:18:44.742Z,30.90
2018-06-16T15:21:13.099Z,30.80
2018-06-16T15:23:41.475Z,30.70
2018-06-16T15:26:09.843Z,30.80
2018-06-16T15:28:38.203Z,31.00
2018-06-16T15:31:06.553Z,31.20
2018-06-16T15:33:34.959Z,31.30
2018-06-16T15:36:03.397Z,31.10
2018-06-16T15:38:31.721Z,31.10
2018-06-16T15:41:00.065Z,31.20
2018-06-16T15:43:28.429Z,31.10
2018-06-16T15:45:56.867Z,31.00
2018-06-16T15:48:25.215Z,31.20
2018-06-16T15:50:53.606Z,30.70
2018-06-16T15:53:21.981Z,30.30
2018-06-16T15:55:50.396Z,30.00
2018-06-16T15:58:18.748Z,29.90
2018-06-16T16:00:48.016Z,29.60
2018-06-16T16:05:44.526Z,29.30
2018-06-16T16:08:12.984Z,29.00
2018-06-16T16:10:41.322Z,28.70
2018-06-16T16:13:09.750Z,28.50
2018-06-16T16:15:38.137Z,28.50
2018-06-16T16:18:06.525Z,28.60
2018-06-16T16:20:34.874Z,28.70
2018-06-16T16:23:03.238Z,28.40
2018-06-16T16:25:31.573Z,27.90
2018-06-16T16:27:59.976Z,27.40
2018-06-16T16:30:28.439Z,27.20
2018-06-16T16:32:56.810Z,27.20
2018-06-16T16:35:25.171Z,27.90
2018-06-16T16:37:53.510Z,28.50
2018-06-16T16:40:22.185Z,29.30
2018-06-16T16:42:51.147Z,30.00
2018-06-16T16:47:47.697Z,31.20
2018-06-16T16:50:16.069Z,31.60
2018-06-16T16:52:44.429Z,31.90
2018-06-16T16:55:12.832Z,32.20
2018-06-16T16:57:41.218Z,31.60
2018-06-16T17:00:09.656Z,30.60
2018-06-16T17:02:38.005Z,29.10
2018-06-16T17:07:34.505Z,27.20
2018-06-16T17:10:02.853Z,27.00
2018-06-16T17:14:59.317Z,28.70
2018-06-16T17:17:27.667Z,29.10
2018-06-16T17:19:56.064Z,29.20
2018-06-16T17:22:24.640Z,29.20
2018-06-16T17:24:53.271Z,29.20
2018-06-16T17:27:21.686Z,29.50
2018-06-16T17:29:50.061Z,29.30
2018-06-16T17:32:18.527Z,29.00
2018-06-16T17:34:46.976Z,28.90
2018-06-16T17:37:15.344Z,28.70
2018-06-16T17:39:43.686Z,28.70
2018-06-16T17:42:12.076Z,28.60
2018-06-16T17:44:41.275Z,28.20
2018-06-16T17:47:09.665Z,27.80
2018-06-16T17:49:38.056Z,27.60
2018-06-16T17:52:06.416Z,27.30
2018-06-16T17:54:34.792Z,27.20
2018-06-16T17:57:03.208Z,26.60
2018-06-16T17:59:31.584Z,25.80
2018-06-16T18:02:00.001Z,24.80
2018-06-16T18:04:28.410Z,24.50
2018-06-16T18:06:56.859Z,24.30
2018-06-16T18:09:25.228Z,24.70
2018-06-16T18:11:53.657Z,25.30
2018-06-16T18:14:22.044Z,25.50
2018-06-16T18:16:50.439Z,25.60
2018-06-16T18:19:18.879Z,25.60
2018-06-16T18:21:47.318Z,25.50
2018-06-16T18:24:15.708Z,25.20
2018-06-16T18:26:44.144Z,25.00
2018-06-16T18:29:12.494Z,25.00
2018-06-16T18:31:40.849Z,25.10
2018-06-16T18:34:09.207Z,25.00
2018-06-16T18:39:07.671Z,24.40
2018-06-16T18:41:36.007Z,24.20
2018-06-16T18:44:04.527Z,24.10
2018-06-16T18:46:32.882Z,23.90
2018-06-16T18:49:01.225Z,23.60
2018-06-16T18:51:29.582Z,23.30
2018-06-16T18:53:57.945Z,23.10
2018-06-16T18:56:26.385Z,23.00
2018-06-16T18:58:54.848Z,22.30
2018-06-16T19:01:23.267Z,21.30
2018-06-16T19:03:51.660Z,20.40
2018-06-16T19:06:20.043Z,19.70
2018-06-16T19:08:48.419Z,19.30
2018-06-16T19:11:16.798Z,18.90
2018-06-16T19:13:45.154Z,18.60
2018-06-16T19:16:13.530Z,18.30
2018-06-16T19:18:41.897Z,18.30
2018-06-16T19:21:10.250Z,18.10
2018-06-16T19:23:38.684Z,18.00
2018-06-16T19:26:07.370Z,17.80
2018-06-16T19:28:35.826Z,17.80
2018-06-16T19:31:04.210Z,17.80
2018-06-16T19:33:32.592Z,17.60
2018-06-16T19:36:01.036Z,17.40
2018-06-16T19:38:29.581Z,17.20
2018-06-16T19:40:57.990Z,17.00
2018-06-16T19:43:26.396Z,16.90
2018-06-16T19:45:54.802Z,16.80
2018-06-16T19:48:23.220Z,16.70
2018-06-16T19:50:51.562Z,16.50
2018-06-16T19:53:19.993Z,16.50
2018-06-16T19:55:48.436Z,16.40
2018-06-16T19:58:16.853Z,16.30
2018-06-16T20:00:45.328Z,16.20
2018-06-16T20:03:13.668Z,16.10
2018-06-16T20:05:42.063Z,16.00
2018-06-16T20:08:10.517Z,16.00
2018-06-16T20:10:38.918Z,15.90
2018-06-16T20:13:07.244Z,15.90
2018-06-16T20:15:35.612Z,15.80
2018-06-16T20:18:03.966Z,15.80
2018-06-16T20:20:32.346Z,15.60
2018-06-16T20:23:01.888Z,15.60
2018-06-16T20:25:30.321Z,15.50
2018-06-16T20:27:58.678Z,15.50
2018-06-16T20:30:27.179Z,15.40
2018-06-16T20:32:55.577Z,15.40
2018-06-16T20:35:24.350Z,15.40
2018-06-16T20:37:52.734Z,15.40
2018-06-16T20:40:21.192Z,15.20
2018-06-16T20:42:49.597Z,15.20
2018-06-16T20:45:18.040Z,15.10
2018-06-16T20:47:46.424Z,15.20
2018-06-16T20:50:14.822Z,15.10
2018-06-16T20:52:43.744Z,15.10
2018-06-16T20:55:12.293Z,15.20
2018-06-16T20:57:40.696Z,15.20
2018-06-16T21:00:09.546Z,15.30
2018-06-16T21:02:38.021Z,15.30
2018-06-16T21:05:06.802Z,15.30
2018-06-16T21:07:35.265Z,15.20
2018-06-16T21:10:03.776Z,15.10
2018-06-16T21:12:32.126Z,15.00
2018-06-16T21:15:00.556Z,15.00
2018-06-16T21:17:29.588Z,14.90
2018-06-16T21:19:58.138Z,14.90
2018-06-16T21:22:26.561Z,14.70
2018-06-16T21:24:55.059Z,14.60
2018-06-16T21:27:23.455Z,14.50
2018-06-16T21:29:51.889Z,14.50
2018-06-16T21:32:20.281Z,14.50
2018-06-16T21:34:48.656Z,14.50
2018-06-16T21:37:17.061Z,14.40
2018-06-16T21:39:45.417Z,14.50
2018-06-16T21:42:13.915Z,14.40
2018-06-16T21:44:42.263Z,14.20
2018-06-16T21:47:10.705Z,14.10
2018-06-16T21:49:39.105Z,14.00
2018-06-16T21:52:07.722Z,14.10
2018-06-16T21:54:37.035Z,14.20
2018-06-16T21:57:05.476Z,14.30
2018-06-16T21:59:33.868Z,14.20
2018-06-16T22:02:02.235Z,14.20
2018-06-16T22:04:30.656Z,14.20
2018-06-16T22:06:59.013Z,14.20
2018-06-16T22:09:27.513Z,14.20
2018-06-16T22:11:55.903Z,14.20
2018-06-16T22:14:24.259Z,14.20
2018-06-16T22:16:52.649Z,14.20
2018-06-16T22:19:21.017Z,14.20
2018-06-16T22:21:49.369Z,14.20
2018-06-16T22:24:17.735Z,14.20
2018-06-16T22:26:46.272Z,14.30
2018-06-16T22:29:14.675Z,14.30
2018-06-16T22:31:43.044Z,14.50
2018-06-16T22:34:11.440Z,14.60
2018-06-16T22:36:39.863Z,14.90
2018-06-16T22:41:36.993Z,15.30
2018-06-16T22:44:05.440Z,15.50
2018-06-16T22:46:33.946Z,15.50
2018-06-16T22:49:02.477Z,15.40
2018-06-16T22:51:30.824Z,15.50
2018-06-16T22:53:59.251Z,15.50
2018-06-16T22:56:28.429Z,15.50
2018-06-16T22:58:57.026Z,15.70
2018-06-16T23:01:25.476Z,15.80
2018-06-16T23:03:54.105Z,16.00
2018-06-16T23:06:22.492Z,16.00
2018-06-16T23:08:50.872Z,16.10
2018-06-16T23:11:19.221Z,16.20
2018-06-16T23:13:47.636Z,16.20
2018-06-16T23:16:16.076Z,16.20
2018-06-16T23:18:44.455Z,16.30
2018-06-16T23:21:12.808Z,16.40
2018-06-16T23:26:09.271Z,16.30
2018-06-16T23:28:37.640Z,16.30
2018-06-16T23:31:06.027Z,16.20
2018-06-16T23:33:34.387Z,16.10
2018-06-16T23:36:02.758Z,15.90
2018-06-16T23:38:31.311Z,15.80
2018-06-16T23:40:59.789Z,15.60
2018-06-16T23:43:28.155Z,15.50
2018-06-16T23:45:56.521Z,15.40
2018-06-16T23:48:24.900Z,15.60
2018-06-16T23:50:53.311Z,15.70
2018-06-16T23:53:21.697Z,15.70
2018-06-16T23:55:50.061Z,15.60
2018-06-16T23:58:18.433Z,15.40
